Time;durP1;ratioP1;P1;durP2;ratioP2;P2;SDS_P1;SDS_P2;PMS_P1;PMS_P2;Temp;Humidity;BMP_temperature;BMP_pressure;BME280_temperature;BME280_humidity;BME280_pressure;Samples;Min_cycle;Max_cycle;Signal;HPM_P1;HPM_P2
2023/12/19 00:00:44;;;;;;;6.30;3.70;;;;;;;-2.01;100.00;94170.91;2113369;28;20502;-80
2023/12/19 00:01:46;;;;;;;5.30;4.05;;;;;;;-1.96;100.00;94183.84;2120757;27;20084;-78
2023/12/19 00:02:47;;;;;;;5.57;4.10;;;;;;;-1.99;100.00;94179.97;2127667;27;20091;-77
2023/12/19 00:03:48;;;;;;;6.07;4.30;;;;;;;-2.00;100.00;94185.53;2113274;28;20077;-79
2023/12/19 00:04:49;;;;;;;5.82;4.30;;;;;;;-2.04;100.00;94183.53;2106661;28;20024;-77
2023/12/19 00:05:50;;;;;;;5.18;3.67;;;;;;;-2.26;100.00;94188.16;2108733;28;20699;-79
2023/12/19 00:06:51;;;;;;;5.72;4.05;;;;;;;-2.19;100.00;94168.28;2100504;28;20447;-77
2023/12/19 00:07:52;;;;;;;4.53;3.58;;;;;;;-2.25;100.00;94177.38;2114190;28;20027;-79
2023/12/19 00:08:52;;;;;;;4.78;3.85;;;;;;;-2.20;100.00;94163.34;2066026;27;20030;-76
2023/12/19 00:09:53;;;;;;;5.90;4.18;;;;;;;-2.12;100.00;94165.97;2043906;27;20023;-79
2023/12/19 00:10:54;;;;;;;6.45;4.20;;;;;;;-2.22;100.00;94165.53;2042409;27;20055;-77
2023/12/19 00:11:55;;;;;;;5.72;4.60;;;;;;;-2.00;100.00;94169.81;2056494;27;20034;-78
2023/12/19 00:12:56;;;;;;;5.72;4.10;;;;;;;-1.94;100.00;94163.31;2052660;27;20744;-78
2023/12/19 00:13:57;;;;;;;6.45;5.07;;;;;;;-1.65;100.00;94175.78;2053934;27;23052;-77
2023/12/19 00:14:58;;;;;;;7.50;4.10;;;;;;;-1.71;100.00;94166.50;2061993;27;20027;-78
2023/12/19 00:15:59;;;;;;;6.20;4.25;;;;;;;-1.88;100.00;94169.97;2060697;27;20441;-78
2023/12/19 00:17:00;;;;;;;5.82;4.40;;;;;;;-2.07;100.00;94162.41;2072376;27;20031;-79
2023/12/19 00:18:02;;;;;;;7.78;4.40;;;;;;;-1.98;100.00;94175.50;2064674;28;20031;-78
2023/12/19 00:19:03;;;;;;;5.05;3.90;;;;;;;-2.08;100.00;94174.75;2054179;28;20138;-76
2023/12/19 00:20:04;;;;;;;5.22;4.10;;;;;;;-2.16;100.00;94170.28;2065952;28;21036;-78
2023/12/19 00:21:05;;;;;;;6.07;4.28;;;;;;;-2.17;100.00;94166.13;2079757;27;20024;-77
2023/12/19 00:22:06;;;;;;;5.47;4.10;;;;;;;-2.13;100.00;94167.06;2093347;27;20031;-79
2023/12/19 00:23:07;;;;;;;8.35;4.18;;;;;;;-2.19;100.00;94165.69;2104709;27;20057;-77
2023/12/19 00:24:07;;;;;;;5.65;3.92;;;;;;;-2.36;100.00;94155.97;2109918;27;20026;-78
2023/12/19 00:25:09;;;;;;;4.90;4.10;;;;;;;-2.38;100.00;94159.97;2114104;28;20026;-80
2023/12/19 00:26:12;;;;;;;6.50;4.68;;;;;;;-2.33;100.00;94150.13;2120174;27;20019;-77
2023/12/19 00:27:13;;;;;;;5.93;3.95;;;;;;;-2.34;100.00;94143.34;2112440;28;20110;-77
2023/12/19 00:28:13;;;;;;;5.18;4.07;;;;;;;-2.30;100.00;94141.63;2109353;28;20019;-77
2023/12/19 00:29:14;;;;;;;13.82;4.53;;;;;;;-2.25;100.00;94140.72;2113082;28;20019;-76
2023/12/19 00:30:16;;;;;;;7.10;5.00;;;;;;;-2.20;100.00;94137.94;2103483;28;20141;-77
2023/12/19 00:31:19;;;;;;;9.20;5.65;;;;;;;-2.16;100.00;94141.47;2105098;28;20035;-77
2023/12/19 00:32:22;;;;;;;7.75;5.63;;;;;;;-2.11;100.00;94136.09;2112887;28;20140;-76
2023/12/19 00:33:23;;;;;;;10.30;5.95;;;;;;;-2.16;100.00;94141.47;2122319;27;20532;-77
2023/12/19 00:34:24;;;;;;;8.68;5.72;;;;;;;-2.09;100.00;94138.41;2122265;27;20160;-79
2023/12/19 00:35:25;;;;;;;9.20;5.22;;;;;;;-2.27;100.00;94145.50;2121718;27;20071;-77
2023/12/19 00:36:26;;;;;;;8.63;5.13;;;;;;;-2.07;100.00;94141.47;2106421;28;20514;-76
2023/12/19 00:37:27;;;;;;;5.82;4.55;;;;;;;-1.91;100.00;94144.38;2098009;28;20024;-75
2023/12/19 00:38:28;;;;;;;8.18;4.28;;;;;;;-1.89;100.00;94145.63;2097315;28;20029;-77
2023/12/19 00:39:29;;;;;;;10.57;6.50;;;;;;;-1.94;100.00;94139.75;2110413;28;20590;-81
2023/12/19 00:40:30;;;;;;;8.20;5.78;;;;;;;-1.99;100.00;94143.31;2110453;28;20133;-76
2023/12/19 00:41:31;;;;;;;8.38;5.88;;;;;;;-2.04;100.00;94144.22;2116471;27;20499;-77
2023/12/19 00:42:32;;;;;;;8.80;6.55;;;;;;;-2.08;100.00;94132.84;2124837;27;20045;-77
2023/12/19 00:43:33;;;;;;;10.77;9.65;;;;;;;-2.07;100.00;94137.00;2106222;28;20522;-79
2023/12/19 00:44:36;;;;;;;8.07;6.45;;;;;;;-2.11;100.00;94140.53;2097578;28;20804;-78
2023/12/19 00:45:37;;;;;;;7.18;5.60;;;;;;;-1.92;100.00;94138.38;2105549;28;20016;-77
2023/12/19 00:46:37;;;;;;;7.20;5.22;;;;;;;-1.93;100.00;94141.28;2115440;28;20016;-78
2023/12/19 00:47:39;;;;;;;7.95;4.95;;;;;;;-2.15;100.00;94137.78;2121976;27;20824;-77
2023/12/19 00:48:39;;;;;;;6.47;4.80;;;;;;;-2.08;100.00;94151.16;2099310;28;20480;-78
2023/12/19 00:49:42;;;;;;;6.07;4.90;;;;;;;-1.98;100.00;94144.84;2101701;28;20020;-76
2023/12/19 00:50:43;;;;;;;7.13;4.40;;;;;;;-1.99;100.00;94140.69;2113903;28;20031;-78
2023/12/19 00:51:44;;;;;;;5.55;4.28;;;;;;;-1.88;100.00;94139.28;2113930;28;20094;-79
2023/12/19 00:52:45;;;;;;;7.43;4.68;;;;;;;-2.19;100.00;94134.25;2118597;27;20027;-76
2023/12/19 00:53:46;;;;;;;5.78;4.85;;;;;;;-2.00;100.00;94126.06;2121151;27;20023;-78
2023/12/19 00:54:47;;;;;;;7.03;4.65;;;;;;;-1.90;100.00;94122.31;2123254;27;20034;-77
2023/12/19 00:55:48;;;;;;;8.10;5.30;;;;;;;-1.88;100.00;94122.81;2119131;27;20022;-77
2023/12/19 00:56:49;;;;;;;6.55;4.95;;;;;;;-1.70;100.00;94128.75;2106034;28;20034;-79
2023/12/19 00:57:50;;;;;;;5.40;4.70;;;;;;;-1.48;100.00;94127.78;2106356;28;20126;-77
2023/12/19 00:58:51;;;;;;;7.47;5.03;;;;;;;-1.67;100.00;94128.13;2115218;28;20023;-79
2023/12/19 00:59:52;;;;;;;5.57;4.50;;;;;;;-1.63;100.00;94123.78;2105432;28;20062;-77
2023/12/19 01:00:53;;;;;;;6.78;5.35;;;;;;;-1.94;100.00;94118.78;2106459;28;20048;-76
2023/12/19 01:01:53;;;;;;;6.93;4.47;;;;;;;-2.01;100.00;94126.38;2106078;28;20031;-76
2023/12/19 01:02:54;;;;;;;5.55;4.72;;;;;;;-2.08;100.00;94119.75;2104918;28;20028;-76
2023/12/19 01:03:55;;;;;;;6.53;4.70;;;;;;;-2.06;100.00;94117.59;2114692;27;20030;-76
2023/12/19 01:04:57;;;;;;;8.23;5.43;;;;;;;-2.07;100.00;94118.66;2116700;27;21000;-78
2023/12/19 01:06:00;;;;;;;11.70;5.05;;;;;;;-2.15;100.00;94116.03;2085946;27;20025;-77
2023/12/19 01:07:01;;;;;;;9.27;5.15;;;;;;;-2.09;100.00;94117.44;2033623;27;20572;-78
2023/12/19 01:08:02;;;;;;;10.52;5.68;;;;;;;-2.12;100.00;94116.19;2029648;28;20051;-77
2023/12/19 01:09:04;;;;;;;7.03;4.57;;;;;;;-2.00;100.00;94112.97;2034247;28;20146;-80
2023/12/19 01:10:05;;;;;;;6.80;4.95;;;;;;;-1.98;100.00;94110.78;2045411;27;20031;-78
2023/12/19 01:11:09;;;;;;;6.47;4.57;;;;;;;-1.63;100.00;94114.06;2060787;27;20023;-76
2023/12/19 01:12:10;;;;;;;6.70;4.45;;;;;;;-1.70;100.00;94116.44;2055126;27;20128;-79
2023/12/19 01:13:11;;;;;;;5.88;4.65;;;;;;;-1.90;100.00;94109.22;2062178;27;20023;-78
2023/12/19 01:14:12;;;;;;;7.68;4.70;;;;;;;-2.03;100.00;94121.44;2074412;27;20023;-79
2023/12/19 01:15:13;;;;;;;4.97;4.28;;;;;;;-2.12;100.00;94118.81;2076370;27;20019;-76
2023/12/19 01:16:15;;;;;;;6.85;4.45;;;;;;;-2.13;100.00;94125.16;2061741;28;22414;-78
2023/12/19 01:17:16;;;;;;;6.68;4.30;;;;;;;-2.11;100.00;94122.19;2074033;28;20021;-77
2023/12/19 01:18:18;;;;;;;6.95;4.35;;;;;;;-2.05;100.00;94119.13;2103248;27;20392;-80
2023/12/19 01:19:19;;;;;;;5.95;4.45;;;;;;;-2.21;100.00;94120.69;2072808;27;20441;-77
2023/12/19 01:20:19;;;;;;;5.75;4.10;;;;;;;-2.11;100.00;94117.75;2038786;27;20140;-78
2023/12/19 01:21:20;;;;;;;6.80;4.45;;;;;;;-2.10;100.00;94121.16;2032834;27;20109;-75
2023/12/19 01:22:21;;;;;;;6.45;4.13;;;;;;;-2.09;100.00;94118.22;2056943;27;20549;-80
2023/12/19 01:23:23;;;;;;;4.57;3.85;;;;;;;-2.01;100.00;94115.91;2061555;27;20168;-77
2023/12/19 01:24:24;;;;;;;8.13;4.72;;;;;;;-2.04;100.00;94115.41;2055666;27;20027;-76
2023/12/19 01:25:25;;;;;;;7.38;4.38;;;;;;;-2.13;100.00;94112.06;2059965;27;20035;-76
2023/12/19 01:26:25;;;;;;;7.50;4.10;;;;;;;-2.07;100.00;94113.41;2065637;27;20813;-79
2023/12/19 01:27:26;;;;;;;6.28;4.22;;;;;;;-2.16;100.00;94119.75;2073227;27;20053;-79
2023/12/19 01:28:27;;;;;;;5.82;4.47;;;;;;;-2.11;100.00;94112.53;2076274;27;20024;-79
2023/12/19 01:29:28;;;;;;;6.78;4.32;;;;;;;-2.18;100.00;94114.06;2072509;28;20456;-80
2023/12/19 01:30:30;;;;;;;6.32;4.28;;;;;;;-2.19;100.00;94118.53;2082657;27;20072;-79
2023/12/19 01:31:31;;;;;;;5.47;4.07;;;;;;;-2.35;100.00;94120.09;2088873;27;20027;-79
2023/12/19 01:32:31;;;;;;;5.88;3.78;;;;;;;-2.34;100.00;94109.28;2090312;27;22321;-78
2023/12/19 01:33:32;;;;;;;5.22;4.00;;;;;;;-2.29;100.00;94100.50;2093263;28;20035;-78
2023/12/19 01:34:33;;;;;;;6.72;3.78;;;;;;;-2.25;100.00;94106.66;2106670;27;20450;-77
2023/12/19 01:35:35;;;;;;;6.68;4.28;;;;;;;-2.10;100.00;94111.44;2102012;28;20039;-79
2023/12/19 01:36:41;;;;;;;5.55;4.22;;;;;;;-2.16;100.00;94117.13;2114687;27;20027;-80
2023/12/19 01:37:43;;;;;;;6.57;4.20;;;;;;;-2.11;100.00;94115.16;2123039;27;20419;-80
2023/12/19 01:38:44;;;;;;;6.15;4.55;;;;;;;-2.10;100.00;94115.91;2121850;27;20019;-77
2023/12/19 01:39:44;;;;;;;5.93;4.47;;;;;;;-2.11;100.00;94119.59;2132085;27;20054;-79
2023/12/19 01:40:45;;;;;;;5.10;4.05;;;;;;;-2.20;100.00;94113.59;2132156;27;20023;-78
2023/12/19 01:41:46;;;;;;;6.05;4.28;;;;;;;-2.20;100.00;94103.88;2122746;27;20063;-80
2023/12/19 01:42:47;;;;;;;6.85;4.35;;;;;;;-2.14;100.00;94107.13;2122247;27;20080;-80
2023/12/19 01:43:48;;;;;;;5.80;4.10;;;;;;;-2.25;100.00;94106.66;2132011;27;20355;-82
2023/12/19 01:45:09;;;;;;;6.88;5.13;;;;;;;-2.23;100.00;94101.91;2117841;27;20023;-79
2023/12/19 01:46:15;;;;;;;7.68;4.45;;;;;;;-2.21;100.00;94099.72;2109022;28;20035;-79
2023/12/19 01:47:16;;;;;;;7.63;4.50;;;;;;;-2.25;100.00;94093.56;2105909;28;20523;-77
2023/12/19 01:48:18;;;;;;;5.63;4.05;;;;;;;-2.19;100.00;94102.81;2096687;28;20020;-79
2023/12/19 01:49:19;;;;;;;6.28;3.95;;;;;;;-2.21;100.00;94099.72;2091712;28;20043;-78
2023/12/19 01:50:20;;;;;;;5.25;3.95;;;;;;;-2.14;100.00;94110.53;2099881;28;20025;-77
2023/12/19 01:51:21;;;;;;;6.18;3.97;;;;;;;-2.13;100.00;94112.06;2106940;28;20032;-78
2023/12/19 01:52:22;;;;;;;4.40;3.65;;;;;;;-2.18;100.00;94099.13;2112127;28;20118;-80
2023/12/19 01:53:23;;;;;;;5.45;4.18;;;;;;;-2.18;100.00;94101.75;2104417;28;20032;-78
2023/12/19 01:54:27;;;;;;;5.22;4.00;;;;;;;-2.23;100.00;94111.63;2114031;28;20047;-78
2023/12/19 01:55:28;;;;;;;4.07;3.58;;;;;;;-2.26;100.00;94107.75;2106194;28;20035;-76
2023/12/19 01:56:30;;;;;;;5.72;4.20;;;;;;;-2.26;100.00;94112.22;2111123;28;20042;-80
2023/12/19 01:57:31;;;;;;;4.88;3.92;;;;;;;-2.25;100.00;94109.28;2112614;27;20847;-78
2023/12/19 01:58:34;;;;;;;6.85;4.30;;;;;;;-2.21;100.00;94107.59;2113539;28;20076;-78
2023/12/19 01:59:35;;;;;;;5.45;3.97;;;;;;;-2.23;100.00;94106.38;2114017;27;20607;-79
2023/12/19 02:00:37;;;;;;;5.15;3.40;;;;;;;-2.16;100.00;94112.66;2117525;27;20028;-80
2023/12/19 02:01:39;;;;;;;5.78;3.47;;;;;;;-1.92;100.00;94112.16;2107134;28;20064;-77
2023/12/19 02:02:44;;;;;;;4.80;3.33;;;;;;;-1.71;100.00;94109.66;2104636;28;20032;-78
2023/12/19 02:03:46;;;;;;;6.68;3.67;;;;;;;-1.83;100.00;94109.53;2047614;27;20145;-78
2023/12/19 02:04:47;;;;;;;4.97;3.40;;;;;;;-1.90;100.00;94102.13;2036596;28;20081;-78
2023/12/19 02:05:50;;;;;;;4.07;2.97;;;;;;;-2.06;100.00;94101.88;2031201;27;20038;-78
2023/12/19 02:06:51;;;;;;;8.15;3.83;;;;;;;-2.09;100.00;94105.13;2040433;27;20030;-78
2023/12/19 02:07:52;;;;;;;4.50;3.13;;;;;;;-2.09;100.00;94109.59;2057868;27;22002;-79
2023/12/19 02:08:53;;;;;;;5.45;3.42;;;;;;;-2.15;100.00;94105.56;2047675;28;20586;-78
2023/12/19 02:09:54;;;;;;;5.97;3.38;;;;;;;-2.21;100.00;94104.22;2052605;28;20202;-79
2023/12/19 02:10:55;;;;;;;3.90;3.25;;;;;;;-2.20;100.00;94106.50;2067109;27;20032;-78
2023/12/19 02:11:56;;;;;;;5.05;3.35;;;;;;;-2.21;100.00;94097.13;2064903;27;20046;-78
2023/12/19 02:12:57;;;;;;;4.95;3.35;;;;;;;-2.21;100.00;94099.72;2062581;28;20062;-79
2023/12/19 02:13:58;;;;;;;4.03;3.05;;;;;;;-2.36;100.00;94102.84;2076281;27;20031;-79
2023/12/19 02:14:59;;;;;;;5.03;3.72;;;;;;;-2.35;100.00;94096.53;2078747;27;20031;-81
2023/12/19 02:16:00;;;;;;;4.80;3.28;;;;;;;-2.33;100.00;94099.59;2077158;27;20020;-77
2023/12/19 02:17:01;;;;;;;4.25;3.13;;;;;;;-2.22;100.00;94100.06;2082974;28;20031;-79
2023/12/19 02:18:21;;;;;;;4.57;3.40;;;;;;;-2.24;100.00;94095.13;2088499;28;20677;-79
2023/12/19 02:19:22;;;;;;;4.88;3.38;;;;;;;-2.19;100.00;94091.59;2110015;27;20035;-79
2023/12/19 02:20:23;;;;;;;3.95;3.05;;;;;;;-2.23;100.00;94095.91;2122622;27;20050;-80
2023/12/19 02:21:23;;;;;;;4.38;2.97;;;;;;;-2.29;100.00;94095.28;2122537;27;20023;-77
2023/12/19 02:22:24;;;;;;;4.78;3.28;;;;;;;-2.35;100.00;94099.91;2123352;27;20383;-78
2023/12/19 02:25:04;;;;;;;;;;;;;;;-2.95;100.00;94092.03;2148494;27;20109;-79
2023/12/19 02:26:05;;;;;;;2.60;2.40;;;;;;;-2.87;100.00;94078.97;2129729;27;19951;-78
2023/12/19 02:27:07;;;;;;;4.03;2.80;;;;;;;-2.77;100.00;94072.66;2120684;27;20015;-81
2023/12/19 02:28:08;;;;;;;5.40;3.17;;;;;;;-2.77;100.00;94080.50;2129754;27;20011;-79
2023/12/19 02:29:09;;;;;;;3.75;3.05;;;;;;;-2.79;100.00;94069.59;2129978;27;20466;-79
2023/12/19 02:30:10;;;;;;;4.13;3.05;;;;;;;-2.70;100.00;94070.38;2134282;27;20019;-79
2023/12/19 02:31:12;;;;;;;4.53;3.25;;;;;;;-2.74;100.00;94071.28;2122435;27;20019;-78
2023/12/19 02:32:13;;;;;;;5.28;3.38;;;;;;;-2.53;100.00;94072.97;2113242;27;20456;-77
2023/12/19 02:33:14;;;;;;;5.43;3.85;;;;;;;-2.61;100.00;94072.97;2128953;27;20026;-77
2023/12/19 02:34:15;;;;;;;4.85;3.13;;;;;;;-2.63;100.00;94072.53;2139023;27;20018;-77
2023/12/19 02:35:16;;;;;;;4.97;3.25;;;;;;;-2.66;100.00;94068.69;2124753;27;20057;-77
2023/12/19 02:36:17;;;;;;;4.45;3.30;;;;;;;-2.65;100.00;94074.69;2116065;28;20019;-78
2023/12/19 02:37:18;;;;;;;6.70;3.38;;;;;;;-2.74;100.00;94074.69;2123606;27;20103;-79
2023/12/19 02:38:18;;;;;;;3.78;2.80;;;;;;;-2.81;100.00;94066.50;2133952;27;20021;-77
2023/12/19 02:39:19;;;;;;;6.10;3.03;;;;;;;-2.75;100.00;94081.00;2129080;27;20474;-78
2023/12/19 02:40:21;;;;;;;5.10;3.28;;;;;;;-2.67;100.00;94082.84;2132515;27;20095;-79
2023/12/19 02:41:22;;;;;;;4.20;3.28;;;;;;;-2.68;100.00;94075.28;2137165;27;20493;-78
2023/12/19 02:42:23;;;;;;;5.40;3.40;;;;;;;-2.71;100.00;94084.53;2125235;27;20031;-77
2023/12/19 02:43:24;;;;;;;5.28;3.50;;;;;;;-2.70;100.00;94086.06;2130791;27;20164;-80
2023/12/19 02:44:25;;;;;;;4.07;3.45;;;;;;;-2.74;100.00;94087.75;2138368;27;20015;-79
2023/12/19 02:45:28;;;;;;;4.15;3.17;;;;;;;-2.88;100.00;94081.91;2142931;27;20034;-80
2023/12/19 02:46:29;;;;;;;5.13;3.40;;;;;;;-2.85;100.00;94081.31;2131898;27;20069;-79
2023/12/19 02:47:30;;;;;;;4.35;2.80;;;;;;;-2.84;100.00;94075.75;2116237;28;20028;-77
2023/12/19 02:48:30;;;;;;;5.15;3.30;;;;;;;-2.92;100.00;94073.13;2113346;27;20380;-79
2023/12/19 02:49:32;;;;;;;4.75;3.42;;;;;;;-2.85;100.00;94063.00;2129229;27;20247;-79
2023/12/19 02:50:32;;;;;;;3.45;3.13;;;;;;;-2.81;100.00;94064.69;2138343;27;20034;-79
2023/12/19 02:51:33;;;;;;;5.20;3.20;;;;;;;-2.85;100.00;94063.75;2133263;27;20019;-78
2023/12/19 02:52:34;;;;;;;4.30;3.22;;;;;;;-2.82;100.00;94060.50;2147206;27;20130;-78
2023/12/19 02:53:35;;;;;;;4.80;2.97;;;;;;;-2.78;100.00;94063.28;2147073;27;20026;-79
2023/12/19 02:54:36;;;;;;;4.03;3.28;;;;;;;-2.84;100.00;94060.06;2147849;27;20374;-77
2023/12/19 02:55:37;;;;;;;5.63;3.40;;;;;;;-2.89;100.00;94060.22;2147281;27;20014;-79
2023/12/19 02:56:38;;;;;;;5.32;3.42;;;;;;;-2.91;100.00;94057.13;2137957;27;20033;-80
2023/12/19 02:57:39;;;;;;;4.03;3.00;;;;;;;-2.81;100.00;94066.50;2130023;27;20027;-77
2023/12/19 02:58:40;;;;;;;3.72;2.95;;;;;;;-2.69;100.00;94064.06;2138397;27;20374;-78
2023/12/19 02:59:41;;;;;;;6.43;3.58;;;;;;;-2.65;100.00;94061.59;2147403;27;20022;-78
2023/12/19 03:00:42;;;;;;;3.63;2.95;;;;;;;-2.82;100.00;94054.50;2147345;27;20026;-78
2023/12/19 03:01:53;;;;;;;5.05;3.63;;;;;;;-2.90;100.00;94058.66;2147745;27;20026;-79
2023/12/19 03:02:58;;;;;;;4.45;3.50;;;;;;;-2.88;100.00;94056.53;2129250;27;20027;-77
2023/12/19 03:03:59;;;;;;;4.45;3.28;;;;;;;-2.89;100.00;94052.38;2110814;28;20019;-78
2023/12/19 03:05:00;;;;;;;6.53;3.45;;;;;;;-2.72;100.00;94059.47;2120918;27;20023;-79
2023/12/19 03:06:01;;;;;;;3.28;2.97;;;;;;;-2.70;100.00;94062.53;2122040;27;20020;-77
2023/12/19 03:07:03;;;;;;;3.95;3.10;;;;;;;-2.68;100.00;94067.44;2131761;27;20147;-78
2023/12/19 03:08:04;;;;;;;4.68;3.40;;;;;;;-2.68;100.00;94065.59;2129584;27;20018;-77
2023/12/19 03:09:04;;;;;;;3.67;2.88;;;;;;;-2.74;100.00;94066.06;2111927;28;20449;-79
2023/12/19 03:10:08;;;;;;;4.75;3.30;;;;;;;-2.89;100.00;94062.06;2121102;28;20076;-79
2023/12/19 03:11:09;;;;;;;3.67;3.17;;;;;;;-2.89;100.00;94062.06;2134463;27;20026;-77
2023/12/19 03:12:09;;;;;;;4.20;3.70;;;;;;;-2.94;100.00;94055.16;2128833;27;20022;-79
2023/12/19 03:13:10;;;;;;;5.32;3.33;;;;;;;-2.99;100.00;94054.50;2125574;27;20015;-77
2023/12/19 03:14:11;;;;;;;3.58;3.22;;;;;;;-2.96;100.00;94052.06;2129977;27;20375;-80
2023/12/19 03:15:12;;;;;;;5.30;3.17;;;;;;;-2.89;100.00;94055.00;2140903;27;20367;-76
2023/12/19 03:16:13;;;;;;;4.25;3.25;;;;;;;-2.92;100.00;94060.06;2134936;27;20022;-79
2023/12/19 03:17:15;;;;;;;5.22;3.85;;;;;;;-2.92;100.00;94062.66;2134178;27;20049;-77
2023/12/19 03:18:23;;;;;;;4.18;3.17;;;;;;;-2.91;100.00;94059.75;2133854;27;20015;-78
2023/12/19 03:19:24;;;;;;;4.00;2.88;;;;;;;-3.00;100.00;94066.03;2120262;28;20109;-76
2023/12/19 03:20:25;;;;;;;4.45;3.30;;;;;;;-3.07;100.00;94043.75;2112664;28;20020;-79
2023/12/19 03:21:26;;;;;;;5.70;3.13;;;;;;;-3.06;100.00;94052.34;2121895;27;20019;-79
2023/12/19 03:22:27;;;;;;;3.78;3.00;;;;;;;-2.95;100.00;94060.66;2121124;28;20020;-77
2023/12/19 03:23:28;;;;;;;4.80;2.80;;;;;;;-2.96;100.00;94049.44;2112658;28;20035;-78
2023/12/19 03:24:30;;;;;;;3.95;2.92;;;;;;;-3.01;100.00;94060.06;2120089;27;20396;-79
2023/12/19 03:25:30;;;;;;;4.38;3.28;;;;;;;-2.57;100.00;94048.50;2133297;27;20032;-78
2023/12/19 03:26:32;;;;;;;4.47;2.78;;;;;;;-2.73;100.00;94055.28;2120996;28;20026;-76
2023/12/19 03:27:33;;;;;;;4.72;3.40;;;;;;;-2.81;100.00;94048.19;2111718;28;20015;-81
2023/12/19 03:28:35;;;;;;;4.22;2.75;;;;;;;-2.79;100.00;94048.69;2120043;28;20019;-78
2023/12/19 03:29:37;;;;;;;4.28;3.17;;;;;;;-2.73;100.00;94036.97;2134484;27;20566;-77
2023/12/19 03:30:38;;;;;;;5.50;3.10;;;;;;;-2.83;100.00;94042.53;2138727;27;20487;-78
2023/12/19 03:31:39;;;;;;;5.63;3.15;;;;;;;-2.89;100.00;94046.38;2137879;27;20034;-80
2023/12/19 03:32:40;;;;;;;4.82;3.03;;;;;;;-2.82;100.00;94042.19;2137540;27;20022;-80
2023/12/19 03:33:41;;;;;;;5.47;3.10;;;;;;;-2.66;100.00;94037.28;2136192;27;20069;-79
2023/12/19 03:34:42;;;;;;;3.83;3.38;;;;;;;-2.79;100.00;94044.22;2117969;28;20034;-78
2023/12/19 03:35:43;;;;;;;3.67;2.95;;;;;;;-2.82;100.00;94038.81;2111453;28;20047;-80
2023/12/19 03:36:44;;;;;;;4.53;3.08;;;;;;;-2.91;100.00;94038.81;2123401;27;20023;-78
2023/12/19 03:37:44;;;;;;;4.85;3.20;;;;;;;-2.92;100.00;94031.28;2124518;27;20082;-75
2023/12/19 03:38:45;;;;;;;3.58;2.97;;;;;;;-2.80;100.00;94032.22;2130941;27;20043;-78
2023/12/19 03:39:46;;;;;;;4.25;2.90;;;;;;;-2.85;100.00;94040.22;2128523;27;20106;-78
2023/12/19 03:40:47;;;;;;;4.05;2.78;;;;;;;-2.87;100.00;94028.50;2123286;27;20466;-80
2023/12/19 03:41:49;;;;;;;3.38;2.83;;;;;;;-2.85;100.00;94029.00;2123598;27;20019;-77
2023/12/19 03:42:50;;;;;;;4.55;3.00;;;;;;;-2.71;100.00;94026.97;2124283;27;20038;-76
2023/12/19 03:43:51;;;;;;;3.83;3.03;;;;;;;-2.83;100.00;94026.81;2131102;27;20022;-78
2023/12/19 03:44:52;;;;;;;4.60;3.28;;;;;;;-2.79;100.00;94019.91;2122995;27;20038;-78
2023/12/19 03:45:57;;;;;;;4.60;3.00;;;;;;;-2.78;100.00;94024.81;2115392;28;20054;-77
2023/12/19 03:46:58;;;;;;;3.58;2.80;;;;;;;-2.73;100.00;94020.50;2109618;28;20118;-77
2023/12/19 03:47:59;;;;;;;3.28;2.78;;;;;;;-2.76;100.00;94021.13;2114643;28;20015;-80
2023/12/19 03:49:00;;;;;;;4.35;3.17;;;;;;;-2.73;100.00;94018.66;2114779;28;20015;-80
2023/12/19 03:50:01;;;;;;;3.63;2.97;;;;;;;-2.75;100.00;94023.44;2106887;28;20020;-79
2023/12/19 03:51:03;;;;;;;3.85;3.38;;;;;;;-2.76;100.00;94021.91;2123212;27;20023;-77
2023/12/19 03:52:04;;;;;;;4.07;3.25;;;;;;;-2.82;100.00;94017.88;2122143;27;20049;-79
2023/12/19 03:53:05;;;;;;;3.28;2.60;;;;;;;-2.76;100.00;94024.53;2106837;28;20028;-78
2023/12/19 03:54:06;;;;;;;3.53;3.03;;;;;;;-2.87;100.00;94008.34;2119320;27;20019;-78
2023/12/19 03:55:08;;;;;;;4.18;2.97;;;;;;;-2.89;100.00;94013.13;2127222;27;20035;-79
2023/12/19 03:56:09;;;;;;;3.25;2.90;;;;;;;-2.90;100.00;94018.66;2115408;28;20012;-78
2023/12/19 03:57:10;;;;;;;3.10;2.80;;;;;;;-2.96;100.00;94010.22;2106157;28;20043;-78
2023/12/19 03:58:11;;;;;;;4.50;2.80;;;;;;;-2.96;100.00;94017.28;2115206;28;20023;-78
2023/12/19 03:59:12;;;;;;;3.50;3.20;;;;;;;-2.94;100.00;94012.50;2115281;28;20492;-79
2023/12/19 04:00:13;;;;;;;4.68;2.88;;;;;;;-3.05;100.00;94015.44;2111519;28;20409;-79
2023/12/19 04:01:17;;;;;;;5.63;2.95;;;;;;;-2.98;100.00;94014.22;2123428;27;20490;-78
2023/12/19 04:02:18;;;;;;;4.03;2.75;;;;;;;-3.00;100.00;94005.91;2116972;27;20019;-78
2023/12/19 04:03:19;;;;;;;4.00;3.08;;;;;;;-3.00;100.00;94000.66;2120977;27;20476;-77
2023/12/19 04:04:20;;;;;;;5.10;3.25;;;;;;;-3.02;100.00;94003.59;2126971;27;20027;-79
2023/12/19 04:05:21;;;;;;;4.55;2.90;;;;;;;-3.04;100.00;94003.88;2132660;27;20022;-80
2023/12/19 04:06:22;;;;;;;4.15;2.90;;;;;;;-3.06;100.00;94005.28;2125538;27;20542;-78
2023/12/19 04:07:23;;;;;;;4.15;2.85;;;;;;;-3.08;100.00;94002.97;2123171;27;20034;-78
2023/12/19 04:08:24;;;;;;;5.45;3.10;;;;;;;-2.77;100.00;93994.19;2121479;27;20522;-78
2023/12/19 04:09:24;;;;;;;3.92;2.97;;;;;;;-2.83;100.00;93990.19;2131870;27;20018;-80
2023/12/19 04:10:25;;;;;;;3.80;3.40;;;;;;;-2.99;100.00;93992.50;2123251;27;20026;-78
2023/12/19 04:11:26;;;;;;;4.32;3.25;;;;;;;-2.91;100.00;93989.13;2114829;28;20173;-78
2023/12/19 04:12:27;;;;;;;3.75;3.20;;;;;;;-2.82;100.00;93994.34;2122883;27;20031;-80
2023/12/19 04:13:29;;;;;;;3.38;3.08;;;;;;;-2.76;100.00;93981.91;2131323;27;20019;-78
2023/12/19 04:14:31;;;;;;;3.30;2.97;;;;;;;-2.71;100.00;93979.88;2123306;27;20015;-79
2023/12/19 04:15:32;;;;;;;3.50;3.03;;;;;;;-2.80;100.00;93981.75;2115400;28;20027;-79
2023/12/19 04:16:33;;;;;;;4.03;2.97;;;;;;;-2.84;100.00;93980.81;2104796;28;20023;-78
2023/12/19 04:17:34;;;;;;;4.72;3.00;;;;;;;-2.82;100.00;93982.03;2114862;27;20498;-79
2023/12/19 04:18:35;;;;;;;4.75;3.10;;;;;;;-2.85;100.00;93989.75;2132564;27;20071;-80
2023/12/19 04:19:35;;;;;;;3.95;2.90;;;;;;;-2.91;100.00;93983.88;2114489;28;20038;-79
2023/12/19 04:20:37;;;;;;;3.28;2.90;;;;;;;-2.88;100.00;93985.13;2114888;28;20019;-81
2023/12/19 04:21:40;;;;;;;3.55;3.20;;;;;;;-2.85;100.00;93982.66;2123474;27;20324;-81
2023/12/19 04:22:42;;;;;;;4.03;2.88;;;;;;;-3.01;100.00;93989.44;2115121;28;20439;-79
2023/12/19 04:23:43;;;;;;;4.72;2.78;;;;;;;-3.00;100.00;93984.97;2106530;28;20035;-78
2023/12/19 04:24:43;;;;;;;4.07;3.00;;;;;;;-3.06;100.00;93979.16;2105272;28;20043;-81
2023/12/19 04:25:46;;;;;;;3.20;2.90;;;;;;;-3.11;100.00;93982.69;2114871;28;20034;-79
2023/12/19 04:26:47;;;;;;;4.05;3.10;;;;;;;-3.19;100.00;93972.22;2106671;28;20024;-79
2023/12/19 04:27:48;;;;;;;3.35;3.05;;;;;;;-3.01;100.00;93978.22;2105765;27;20032;-77
2023/12/19 04:28:49;;;;;;;3.53;3.10;;;;;;;-3.00;100.00;93974.53;2123461;27;20023;-79
2023/12/19 04:29:51;;;;;;;4.75;3.08;;;;;;;-2.95;100.00;93987.44;2114980;28;20023;-78
2023/12/19 04:30:52;;;;;;;4.25;3.00;;;;;;;-3.08;100.00;93978.66;2114779;28;20019;-77
2023/12/19 04:31:52;;;;;;;3.80;2.85;;;;;;;-2.99;100.00;93976.81;2106145;28;20405;-78
2023/12/19 04:32:53;;;;;;;3.92;2.85;;;;;;;-3.17;100.00;93973.44;2117054;27;20027;-78
2023/12/19 04:33:54;;;;;;;4.00;3.08;;;;;;;-3.08;100.00;93974.19;2128927;27;20402;-80
2023/12/19 04:34:55;;;;;;;3.40;3.10;;;;;;;-3.15;100.00;93978.38;2126878;27;20044;-77
2023/12/19 04:35:56;;;;;;;4.05;3.00;;;;;;;-3.15;100.00;93981.00;2122753;27;20395;-78
2023/12/19 04:36:57;;;;;;;5.45;3.33;;;;;;;-3.12;100.00;93980.34;2103257;28;20514;-78
2023/12/19 04:37:58;;;;;;;3.72;3.17;;;;;;;-3.12;100.00;93981.13;2114735;28;20019;-79
2023/12/19 04:38:59;;;;;;;3.65;2.60;;;;;;;-3.02;100.00;93985.28;2131532;27;20022;-78
2023/12/19 04:40:02;;;;;;;4.47;3.17;;;;;;;-3.10;100.00;93992.06;2123500;27;20019;-76
2023/12/19 04:41:12;;;;;;;4.32;3.13;;;;;;;-3.10;100.00;93984.22;2113996;28;20442;-80
2023/12/19 04:42:17;;;;;;;;;;;;;;;-3.14;100.00;93988.53;2122098;27;20052;-76
2023/12/19 04:43:18;;;;;;;2.92;2.35;;;;;;;-2.99;100.00;93986.50;2118790;27;19911;-76
2023/12/19 04:44:19;;;;;;;4.78;3.05;;;;;;;-2.89;100.00;93984.38;2114769;28;20102;-78
2023/12/19 04:45:20;;;;;;;3.65;2.60;;;;;;;-2.62;100.00;93985.09;2108709;28;20023;-76
2023/12/19 04:46:21;;;;;;;3.75;3.03;;;;;;;-2.64;100.00;93987.25;2098775;28;20024;-76
2023/12/19 04:47:22;;;;;;;4.68;2.75;;;;;;;-2.84;100.00;93980.81;2114376;28;20776;-77
2023/12/19 04:48:23;;;;;;;3.30;2.70;;;;;;;-2.94;100.00;93988.97;2130241;27;20050;-78